sensor_id;sensor_type;location;lat;lon;timestamp;pressure;altitude;pressure_sealevel;temperature;humidity
8334;BME280;4204;43.004;23.052;2023-06-22T00:01:47;94233.47;;;17.04;100.00
8334;BME280;4204;43.004;23.052;2023-06-22T00:04:15;94229.56;;;17.01;100.00
8334;BME280;4204;43.004;23.052;2023-06-22T00:06:43;94235.56;;;17.10;100.00
8334;BME280;4204;43.004;23.052;2023-06-22T00:09:12;94231.88;;;17.30;100.00
8334;BME280;4204;43.004;23.052;2023-06-22T00:11:40;94221.06;;;17.42;100.00
8334;BME280;4204;43.004;23.052;2023-06-22T00:14:07;94214.16;;;17.57;100.00
8334;BME280;4204;43.004;23.052;2023-06-22T00:16:35;94219.16;;;17.27;100.00
8334;BME280;4204;43.004;23.052;2023-06-22T00:19:03;94234.38;;;16.80;100.00
8334;BME280;4204;43.004;23.052;2023-06-22T00:21:31;94231.31;;;16.81;100.00
8334;BME280;4204;43.004;23.052;2023-06-22T00:23:59;94231.81;;;16.71;100.00
8334;BME280;4204;43.004;23.052;2023-06-22T00:26:29;94225.75;;;16.74;100.00
8334;BME280;4204;43.004;23.052;2023-06-22T00:28:57;94218.38;;;16.71;100.00
8334;BME280;4204;43.004;23.052;2023-06-22T00:31:25;94217.94;;;16.45;100.00
8334;BME280;4204;43.004;23.052;2023-06-22T00:33:54;94209.47;;;16.43;100.00
8334;BME280;4204;43.004;23.052;2023-06-22T00:36:22;94216.50;;;16.48;100.00
8334;BME280;4204;43.004;23.052;2023-06-22T00:38:51;94219.00;;;16.29;100.00
8334;BME280;4204;43.004;23.052;2023-06-22T00:41:18;94219.91;;;16.20;100.00
8334;BME280;4204;43.004;23.052;2023-06-22T00:43:47;94221.56;;;16.25;100.00
8334;BME280;4204;43.004;23.052;2023-06-22T00:46:15;94230.16;;;16.31;100.00
8334;BME280;4204;43.004;23.052;2023-06-22T00:48:43;94229.50;;;16.34;100.00
8334;BME280;4204;43.004;23.052;2023-06-22T00:51:11;94229.03;;;16.56;100.00
8334;BME280;4204;43.004;23.052;2023-06-22T00:53:39;94232.38;;;16.65;100.00
8334;BME280;4204;43.004;23.052;2023-06-22T00:56:07;94232.81;;;16.67;100.00
8334;BME280;4204;43.004;23.052;2023-06-22T00:58:36;94244.94;;;16.61;100.00
8334;BME280;4204;43.004;23.052;2023-06-22T01:01:05;94234.06;;;16.69;100.00
8334;BME280;4204;43.004;23.052;2023-06-22T01:03:33;94234.72;;;16.66;100.00
8334;BME280;4204;43.004;23.052;2023-06-22T01:06:08;94237.59;;;16.85;100.00
8334;BME280;4204;43.004;23.052;2023-06-22T01:08:41;94231.06;;;16.86;100.00
8334;BME280;4204;43.004;23.052;2023-06-22T01:11:17;94236.13;;;16.88;100.00
8334;BME280;4204;43.004;23.052;2023-06-22T01:13:51;94239.81;;;17.11;100.00
8334;BME280;4204;43.004;23.052;2023-06-22T01:16:26;94247.78;;;17.35;100.00
8334;BME280;4204;43.004;23.052;2023-06-22T01:18:55;94245.63;;;17.41;100.00
8334;BME280;4204;43.004;23.052;2023-06-22T01:21:25;94247.88;;;17.39;100.00
8334;BME280;4204;43.004;23.052;2023-06-22T01:24:02;94237.63;;;17.44;100.00
8334;BME280;4204;43.004;23.052;2023-06-22T01:26:38;94242.94;;;17.41;100.00
8334;BME280;4204;43.004;23.052;2023-06-22T01:29:12;94242.06;;;17.09;100.00
8334;BME280;4204;43.004;23.052;2023-06-22T01:31:42;94244.06;;;17.12;100.00
8334;BME280;4204;43.004;23.052;2023-06-22T01:34:12;94251.53;;;16.91;100.00
8334;BME280;4204;43.004;23.052;2023-06-22T01:36:42;94260.00;;;16.77;100.00
8334;BME280;4204;43.004;23.052;2023-06-22T01:39:10;94252.59;;;16.74;100.00
8334;BME280;4204;43.004;23.052;2023-06-22T01:41:39;94263.09;;;16.91;100.00
8334;BME280;4204;43.004;23.052;2023-06-22T01:44:10;94260.22;;;17.12;100.00
8334;BME280;4204;43.004;23.052;2023-06-22T01:46:39;94259.28;;;17.20;100.00
8334;BME280;4204;43.004;23.052;2023-06-22T01:49:08;94261.59;;;17.22;100.00
8334;BME280;4204;43.004;23.052;2023-06-22T01:51:36;94259.41;;;17.12;100.00
8334;BME280;4204;43.004;23.052;2023-06-22T01:54:06;94256.63;;;17.08;100.00
8334;BME280;4204;43.004;23.052;2023-06-22T01:56:34;94250.56;;;17.11;100.00
8334;BME280;4204;43.004;23.052;2023-06-22T01:59:07;94262.75;;;17.21;100.00
8334;BME280;4204;43.004;23.052;2023-06-22T02:01:42;94264.06;;;17.27;100.00
8334;BME280;4204;43.004;23.052;2023-06-22T02:04:13;94255.56;;;17.25;100.00
8334;BME280;4204;43.004;23.052;2023-06-22T02:06:46;94263.47;;;17.06;100.00
8334;BME280;4204;43.004;23.052;2023-06-22T02:09:17;94255.84;;;16.80;100.00
8334;BME280;4204;43.004;23.052;2023-06-22T02:11:47;94251.97;;;16.65;100.00
8334;BME280;4204;43.004;23.052;2023-06-22T02:14:16;94248.72;;;16.48;100.00
8334;BME280;4204;43.004;23.052;2023-06-22T02:16:45;94240.47;;;16.53;100.00
8334;BME280;4204;43.004;23.052;2023-06-22T02:19:13;94242.13;;;16.45;100.00
8334;BME280;4204;43.004;23.052;2023-06-22T02:21:44;94247.63;;;16.37;100.00
8334;BME280;4204;43.004;23.052;2023-06-22T02:24:13;94252.44;;;16.31;100.00
8334;BME280;4204;43.004;23.052;2023-06-22T02:26:41;94260.72;;;16.50;100.00
8334;BME280;4204;43.004;23.052;2023-06-22T02:29:11;94257.22;;;16.62;100.00
8334;BME280;4204;43.004;23.052;2023-06-22T02:31:39;94258.22;;;16.69;100.00
8334;BME280;4204;43.004;23.052;2023-06-22T02:34:09;94252.47;;;16.83;100.00
8334;BME280;4204;43.004;23.052;2023-06-22T02:36:36;94259.22;;;16.77;100.00
8334;BME280;4204;43.004;23.052;2023-06-22T02:39:04;94257.19;;;16.74;100.00
8334;BME280;4204;43.004;23.052;2023-06-22T02:41:32;94252.97;;;16.61;100.00
8334;BME280;4204;43.004;23.052;2023-06-22T02:43:59;94265.50;;;16.69;100.00
8334;BME280;4204;43.004;23.052;2023-06-22T02:46:27;94258.75;;;16.75;100.00
8334;BME280;4204;43.004;23.052;2023-06-22T02:48:55;94264.44;;;16.85;100.00
8334;BME280;4204;43.004;23.052;2023-06-22T02:51:24;94266.22;;;16.93;100.00
8334;BME280;4204;43.004;23.052;2023-06-22T02:53:51;94277.41;;;16.95;100.00
8334;BME280;4204;43.004;23.052;2023-06-22T02:56:24;94282.63;;;17.04;100.00
8334;BME280;4204;43.004;23.052;2023-06-22T02:58:57;94287.09;;;17.12;100.00
8334;BME280;4204;43.004;23.052;2023-06-22T03:01:27;94288.00;;;17.04;100.00
8334;BME280;4204;43.004;23.052;2023-06-22T03:03:57;94284.63;;;17.07;100.00
8334;BME280;4204;43.004;23.052;2023-06-22T03:06:26;94287.53;;;17.14;100.00
8334;BME280;4204;43.004;23.052;2023-06-22T03:08:58;94279.25;;;17.07;100.00
8334;BME280;4204;43.004;23.052;2023-06-22T03:11:27;94282.25;;;16.90;100.00
8334;BME280;4204;43.004;23.052;2023-06-22T03:13:55;94282.72;;;16.80;100.00
8334;BME280;4204;43.004;23.052;2023-06-22T03:16:22;94288.47;;;16.42;100.00
8334;BME280;4204;43.004;23.052;2023-06-22T03:18:50;94293.03;;;16.42;100.00
8334;BME280;4204;43.004;23.052;2023-06-22T03:21:19;94293.03;;;16.42;100.00
8334;BME280;4204;43.004;23.052;2023-06-22T03:23:49;94299.75;;;16.48;100.00
8334;BME280;4204;43.004;23.052;2023-06-22T03:26:17;94278.06;;;16.53;100.00
8334;BME280;4204;43.004;23.052;2023-06-22T03:28:45;94298.84;;;16.44;100.00
8334;BME280;4204;43.004;23.052;2023-06-22T03:31:13;94300.66;;;16.15;100.00
8334;BME280;4204;43.004;23.052;2023-06-22T03:33:41;94300.88;;;16.23;100.00
8334;BME280;4204;43.004;23.052;2023-06-22T03:36:09;94309.69;;;16.35;100.00
8334;BME280;4204;43.004;23.052;2023-06-22T03:38:36;94306.81;;;16.40;100.00
8334;BME280;4204;43.004;23.052;2023-06-22T03:41:05;94314.31;;;16.47;100.00
8334;BME280;4204;43.004;23.052;2023-06-22T03:43:34;94300.19;;;16.38;100.00
8334;BME280;4204;43.004;23.052;2023-06-22T03:46:04;94299.75;;;16.48;100.00
8334;BME280;4204;43.004;23.052;2023-06-22T03:48:31;94297.06;;;16.48;100.00
8334;BME280;4204;43.004;23.052;2023-06-22T03:50:59;94300.44;;;16.57;100.00
8334;BME280;4204;43.004;23.052;2023-06-22T03:53:27;94294.81;;;16.62;100.00
8334;BME280;4204;43.004;23.052;2023-06-22T03:55:55;94299.28;;;16.70;100.00
8334;BME280;4204;43.004;23.052;2023-06-22T03:58:25;94300.28;;;16.77;100.00
8334;BME280;4204;43.004;23.052;2023-06-22T04:00:53;94295.91;;;16.85;100.00
8334;BME280;4204;43.004;23.052;2023-06-22T04:03:20;94279.56;;;16.90;100.00
8334;BME280;4204;43.004;23.052;2023-06-22T04:05:48;94282.25;;;16.90;100.00
8334;BME280;4204;43.004;23.052;2023-06-22T04:08:16;94281.66;;;16.96;100.00
8334;BME280;4204;43.004;23.052;2023-06-22T04:10:44;94276.81;;;17.02;100.00
8334;BME280;4204;43.004;23.052;2023-06-22T04:13:11;94278.16;;;17.08;100.00
8334;BME280;4204;43.004;23.052;2023-06-22T04:15:40;94285.97;;;17.13;100.00
8334;BME280;4204;43.004;23.052;2023-06-22T04:18:08;94283.53;;;17.08;100.00
8334;BME280;4204;43.004;23.052;2023-06-22T04:20:36;94290.44;;;17.09;100.00
8334;BME280;4204;43.004;23.052;2023-06-22T04:23:03;94298.28;;;17.14;100.00
8334;BME280;4204;43.004;23.052;2023-06-22T04:25:31;94289.28;;;17.22;100.00
8334;BME280;4204;43.004;23.052;2023-06-22T04:27:59;94286.44;;;17.31;100.00
8334;BME280;4204;43.004;23.052;2023-06-22T04:30:29;94293.50;;;17.35;100.00
8334;BME280;4204;43.004;23.052;2023-06-22T04:32:59;94279.97;;;17.47;100.00
8334;BME280;4204;43.004;23.052;2023-06-22T04:35:26;94280.53;;;17.53;100.00
8334;BME280;4204;43.004;23.052;2023-06-22T04:37:59;94274.06;;;17.69;100.00
8334;BME280;4204;43.004;23.052;2023-06-22T04:40:27;94275.09;;;17.65;100.00
8334;BME280;4204;43.004;23.052;2023-06-22T04:42:54;94285.25;;;17.71;100.00
8334;BME280;4204;43.004;23.052;2023-06-22T04:45:22;94283.09;;;17.77;100.00
8334;BME280;4204;43.004;23.052;2023-06-22T04:47:50;94283.81;;;17.90;100.00
8334;BME280;4204;43.004;23.052;2023-06-22T04:50:19;94281.03;;;18.02;100.00
8334;BME280;4204;43.004;23.052;2023-06-22T04:52:48;94283.19;;;18.12;100.00
8334;BME280;4204;43.004;23.052;2023-06-22T04:55:16;94279.38;;;18.28;100.00
8334;BME280;4204;43.004;23.052;2023-06-22T04:57:46;94280.03;;;18.41;100.00
8334;BME280;4204;43.004;23.052;2023-06-22T05:00:16;94286.41;;;18.48;100.00
8334;BME280;4204;43.004;23.052;2023-06-22T05:02:45;94291.25;;;18.58;100.00
8334;BME280;4204;43.004;23.052;2023-06-22T05:05:13;94305.19;;;18.80;100.00
8334;BME280;4204;43.004;23.052;2023-06-22T05:07:44;94304.44;;;18.98;100.00
8334;BME280;4204;43.004;23.052;2023-06-22T05:10:14;94310.00;;;19.05;100.00
8334;BME280;4204;43.004;23.052;2023-06-22T05:12:42;94316.31;;;19.13;100.00
8334;BME280;4204;43.004;23.052;2023-06-22T05:15:10;94328.75;;;19.17;100.00
8334;BME280;4204;43.004;23.052;2023-06-22T05:17:38;94312.50;;;19.14;100.00
8334;BME280;4204;43.004;23.052;2023-06-22T05:20:09;94327.31;;;19.23;100.00
8334;BME280;4204;43.004;23.052;2023-06-22T05:22:37;94324.88;;;19.18;100.00
8334;BME280;4204;43.004;23.052;2023-06-22T05:25:09;94325.47;;;19.27;100.00
8334;BME280;4204;43.004;23.052;2023-06-22T05:27:37;94325.03;;;19.25;100.00
8334;BME280;4204;43.004;23.052;2023-06-22T05:30:07;94330.38;;;19.41;100.00
8334;BME280;4204;43.004;23.052;2023-06-22T05:32:35;94336.31;;;19.47;100.00
8334;BME280;4204;43.004;23.052;2023-06-22T05:35:03;94340.69;;;19.55;100.00
8334;BME280;4204;43.004;23.052;2023-06-22T05:37:31;94322.78;;;19.66;100.00
8334;BME280;4204;43.004;23.052;2023-06-22T05:39:59;94333.03;;;19.76;100.00
8334;BME280;4204;43.004;23.052;2023-06-22T05:42:28;94335.97;;;19.90;100.00
8334;BME280;4204;43.004;23.052;2023-06-22T05:44:56;94336.44;;;19.95;100.00
8334;BME280;4204;43.004;23.052;2023-06-22T05:47:25;94338.97;;;20.07;100.00
8334;BME280;4204;43.004;23.052;2023-06-22T05:49:53;94331.50;;;20.20;100.00
8334;BME280;4204;43.004;23.052;2023-06-22T05:52:20;94329.38;;;20.29;100.00
8334;BME280;4204;43.004;23.052;2023-06-22T05:54:48;94323.06;;;20.44;100.00
8334;BME280;4204;43.004;23.052;2023-06-22T05:57:16;94325.06;;;20.51;100.00
8334;BME280;4204;43.004;23.052;2023-06-22T05:59:45;94332.22;;;20.62;100.00
8334;BME280;4204;43.004;23.052;2023-06-22T06:02:12;94339.25;;;20.67;100.00
8334;BME280;4204;43.004;23.052;2023-06-22T06:04:40;94330.38;;;20.70;100.00
8334;BME280;4204;43.004;23.052;2023-06-22T06:07:08;94325.50;;;20.79;100.00
8334;BME280;4204;43.004;23.052;2023-06-22T06:09:35;94324.44;;;20.83;100.00
8334;BME280;4204;43.004;23.052;2023-06-22T06:12:04;94316.09;;;20.95;100.00
8334;BME280;4204;43.004;23.052;2023-06-22T06:14:32;94315.72;;;20.97;100.00
8334;BME280;4204;43.004;23.052;2023-06-22T06:17:01;94314.75;;;21.09;100.00
8334;BME280;4204;43.004;23.052;2023-06-22T06:19:29;94321.38;;;21.15;100.00
8334;BME280;4204;43.004;23.052;2023-06-22T06:21:56;94334.97;;;21.18;100.00
8334;BME280;4204;43.004;23.052;2023-06-22T06:24:24;94328.50;;;21.26;100.00
8334;BME280;4204;43.004;23.052;2023-06-22T06:26:52;94320.06;;;21.31;100.00
8334;BME280;4204;43.004;23.052;2023-06-22T06:29:19;94323.66;;;21.39;100.00
8334;BME280;4204;43.004;23.052;2023-06-22T06:31:47;94325.59;;;21.42;100.00
8334;BME280;4204;43.004;23.052;2023-06-22T06:34:16;94314.50;;;21.50;100.00
8334;BME280;4204;43.004;23.052;2023-06-22T06:36:44;94325.00;;;21.55;100.00
8334;BME280;4204;43.004;23.052;2023-06-22T06:39:12;94321.63;;;21.62;100.00
8334;BME280;4204;43.004;23.052;2023-06-22T06:41:40;94327.88;;;21.69;100.00
8334;BME280;4204;43.004;23.052;2023-06-22T06:44:15;94330.22;;;21.71;100.00
8334;BME280;4204;43.004;23.052;2023-06-22T06:46:43;94329.88;;;21.76;100.00
8334;BME280;4204;43.004;23.052;2023-06-22T06:49:10;94330.28;;;21.78;100.00
8334;BME280;4204;43.004;23.052;2023-06-22T06:51:39;94330.84;;;21.91;100.00
8334;BME280;4204;43.004;23.052;2023-06-22T06:54:07;94335.16;;;21.95;100.00
8334;BME280;4204;43.004;23.052;2023-06-22T06:56:35;94336.00;;;22.03;100.00
8334;BME280;4204;43.004;23.052;2023-06-22T06:59:03;94339.84;;;22.02;100.00
8334;BME280;4204;43.004;23.052;2023-06-22T07:01:30;94332.59;;;22.09;100.00
8334;BME280;4204;43.004;23.052;2023-06-22T07:04:00;94330.69;;;22.13;100.00
8334;BME280;4204;43.004;23.052;2023-06-22T07:06:27;94319.88;;;22.17;100.00
8334;BME280;4204;43.004;23.052;2023-06-22T07:08:59;94325.41;;;22.27;100.00
8334;BME280;4204;43.004;23.052;2023-06-22T07:11:27;94324.25;;;22.28;100.00
8334;BME280;4204;43.004;23.052;2023-06-22T07:13:55;94321.25;;;22.40;100.00
8334;BME280;4204;43.004;23.052;2023-06-22T07:16:23;94327.91;;;22.46;100.00
8334;BME280;4204;43.004;23.052;2023-06-22T07:18:52;94321.72;;;22.49;100.00
8334;BME280;4204;43.004;23.052;2023-06-22T07:21:19;94319.97;;;22.68;100.00
8334;BME280;4204;43.004;23.052;2023-06-22T07:23:47;94316.16;;;22.79;100.00
8334;BME280;4204;43.004;23.052;2023-06-22T07:26:16;94316.25;;;22.90;100.00
8334;BME280;4204;43.004;23.052;2023-06-22T07:28:44;94312.75;;;22.93;100.00
8334;BME280;4204;43.004;23.052;2023-06-22T07:31:11;94320.22;;;23.03;100.00
8334;BME280;4204;43.004;23.052;2023-06-22T07:33:39;94316.03;;;23.19;100.00
8334;BME280;4204;43.004;23.052;2023-06-22T07:36:07;94321.91;;;23.32;100.00
8334;BME280;4204;43.004;23.052;2023-06-22T07:38:35;94308.03;;;23.44;100.00
8334;BME280;4204;43.004;23.052;2023-06-22T07:41:03;94304.59;;;23.54;100.00
8334;BME280;4204;43.004;23.052;2023-06-22T07:43:33;94308.13;;;23.72;100.00
8334;BME280;4204;43.004;23.052;2023-06-22T07:46:03;94313.25;;;23.91;100.00
8334;BME280;4204;43.004;23.052;2023-06-22T07:48:31;94317.19;;;24.08;100.00
8334;BME280;4204;43.004;23.052;2023-06-22T07:50:59;94311.75;;;24.12;100.00
8334;BME280;4204;43.004;23.052;2023-06-22T07:53:27;94308.28;;;24.15;100.00
8334;BME280;4204;43.004;23.052;2023-06-22T07:55:54;94310.22;;;24.25;100.00
8334;BME280;4204;43.004;23.052;2023-06-22T07:58:22;94304.00;;;24.42;100.00
8334;BME280;4204;43.004;23.052;2023-06-22T08:00:51;94306.75;;;24.56;100.00
8334;BME280;4204;43.004;23.052;2023-06-22T08:03:19;94311.38;;;24.62;100.00
8334;BME280;4204;43.004;23.052;2023-06-22T08:05:47;94305.97;;;24.66;100.00
8334;BME280;4204;43.004;23.052;2023-06-22T08:08:15;94307.13;;;24.72;100.00
8334;BME280;4204;43.004;23.052;2023-06-22T08:10:42;94299.75;;;24.79;100.00
8334;BME280;4204;43.004;23.052;2023-06-22T08:13:10;94301.28;;;24.87;100.00
8334;BME280;4204;43.004;23.052;2023-06-22T08:15:38;94293.50;;;24.97;100.00
8334;BME280;4204;43.004;23.052;2023-06-22T08:18:07;94286.47;;;25.13;100.00
8334;BME280;4204;43.004;23.052;2023-06-22T08:20:35;94292.66;;;25.31;100.00
8334;BME280;4204;43.004;23.052;2023-06-22T08:23:02;94287.56;;;25.44;100.00
8334;BME280;4204;43.004;23.052;2023-06-22T08:25:32;94287.16;;;25.52;100.00
8334;BME280;4204;43.004;23.052;2023-06-22T08:28:00;94296.13;;;25.53;100.00
8334;BME280;4204;43.004;23.052;2023-06-22T08:30:28;94294.91;;;25.57;100.00
8334;BME280;4204;43.004;23.052;2023-06-22T08:32:56;94286.31;;;25.66;100.00
8334;BME280;4204;43.004;23.052;2023-06-22T08:35:25;94287.38;;;25.83;100.00
8334;BME280;4204;43.004;23.052;2023-06-22T08:37:53;94293.59;;;25.87;100.00
8334;BME280;4204;43.004;23.052;2023-06-22T08:40:23;94290.81;;;25.97;100.00
8334;BME280;4204;43.004;23.052;2023-06-22T08:42:51;94295.03;;;26.05;100.00
8334;BME280;4204;43.004;23.052;2023-06-22T08:45:19;94291.09;;;26.20;100.00
8334;BME280;4204;43.004;23.052;2023-06-22T08:47:46;94294.97;;;26.23;100.00
8334;BME280;4204;43.004;23.052;2023-06-22T08:50:14;94303.91;;;26.27;100.00
8334;BME280;4204;43.004;23.052;2023-06-22T08:52:45;94306.19;;;26.35;100.00
8334;BME280;4204;43.004;23.052;2023-06-22T08:55:12;94296.41;;;26.41;100.00
8334;BME280;4204;43.004;23.052;2023-06-22T08:57:40;94296.75;;;26.51;100.00
8334;BME280;4204;43.004;23.052;2023-06-22T09:00:10;94299.34;;;26.65;100.00
8334;BME280;4204;43.004;23.052;2023-06-22T09:02:43;94292.69;;;26.69;100.00
8334;BME280;4204;43.004;23.052;2023-06-22T09:05:11;94290.28;;;26.78;100.00
8334;BME280;4204;43.004;23.052;2023-06-22T09:07:38;94289.84;;;26.83;100.00
8334;BME280;4204;43.004;23.052;2023-06-22T09:10:08;94285.91;;;26.88;100.00
8334;BME280;4204;43.004;23.052;2023-06-22T09:12:36;94297.16;;;26.93;100.00
8334;BME280;4204;43.004;23.052;2023-06-22T09:15:05;94293.19;;;27.01;100.00
8334;BME280;4204;43.004;23.052;2023-06-22T09:17:34;94291.97;;;27.06;100.00
8334;BME280;4204;43.004;23.052;2023-06-22T09:20:03;94280.63;;;27.07;100.00
8334;BME280;4204;43.004;23.052;2023-06-22T09:22:32;94280.94;;;27.16;100.00
8334;BME280;4204;43.004;23.052;2023-06-22T09:25:00;94274.22;;;27.24;100.00
8334;BME280;4204;43.004;23.052;2023-06-22T09:27:30;94274.91;;;27.32;100.00
8334;BME280;4204;43.004;23.052;2023-06-22T09:29:58;94273.34;;;27.35;100.00
8334;BME280;4204;43.004;23.052;2023-06-22T09:32:25;94272.88;;;27.43;100.00
8334;BME280;4204;43.004;23.052;2023-06-22T09:34:53;94270.09;;;27.47;100.00
8334;BME280;4204;43.004;23.052;2023-06-22T09:37:21;94268.44;;;27.53;100.00
8334;BME280;4204;43.004;23.052;2023-06-22T09:39:49;94265.28;;;27.58;100.00
8334;BME280;4204;43.004;23.052;2023-06-22T09:42:16;94269.91;;;27.61;100.00
8334;BME280;4204;43.004;23.052;2023-06-22T09:44:45;94268.97;;;27.74;100.00
8334;BME280;4204;43.004;23.052;2023-06-22T09:47:13;94267.53;;;27.96;100.00
8334;BME280;4204;43.004;23.052;2023-06-22T09:49:42;94276.34;;;28.08;100.00
8334;BME280;4204;43.004;23.052;2023-06-22T09:52:09;94259.09;;;28.11;100.00
8334;BME280;4204;43.004;23.052;2023-06-22T09:54:37;94256.78;;;28.09;100.00
8334;BME280;4204;43.004;23.052;2023-06-22T09:57:05;94259.03;;;28.14;100.00
8334;BME280;4204;43.004;23.052;2023-06-22T09:59:33;94252.69;;;28.21;100.00
8334;BME280;4204;43.004;23.052;2023-06-22T10:02:02;94256.56;;;28.23;100.00
8334;BME280;4204;43.004;23.052;2023-06-22T10:04:30;94258.06;;;28.28;100.00
8334;BME280;4204;43.004;23.052;2023-06-22T10:06:58;94257.44;;;28.43;100.00
8334;BME280;4204;43.004;23.052;2023-06-22T10:09:27;94254.53;;;28.54;100.00
8334;BME280;4204;43.004;23.052;2023-06-22T10:11:54;94248.28;;;28.53;100.00
8334;BME280;4204;43.004;23.052;2023-06-22T10:14:22;94251.78;;;28.54;100.00
8334;BME280;4204;43.004;23.052;2023-06-22T10:16:52;94250.53;;;28.35;100.00
8334;BME280;4204;43.004;23.052;2023-06-22T10:19:21;94251.38;;;28.32;100.00
8334;BME280;4204;43.004;23.052;2023-06-22T10:21:49;94253.97;;;28.39;100.00
8334;BME280;4204;43.004;23.052;2023-06-22T10:24:16;94247.47;;;28.56;100.00
8334;BME280;4204;43.004;23.052;2023-06-22T10:26:44;94234.41;;;28.67;100.00
8334;BME280;4204;43.004;23.052;2023-06-22T10:29:12;94241.66;;;28.77;100.00
8334;BME280;4204;43.004;23.052;2023-06-22T10:31:40;94231.25;;;28.89;100.00
8334;BME280;4204;43.004;23.052;2023-06-22T10:34:07;94231.50;;;28.98;100.00
8334;BME280;4204;43.004;23.052;2023-06-22T10:36:37;94227.78;;;29.08;100.00
8334;BME280;4204;43.004;23.052;2023-06-22T10:39:04;94232.44;;;29.11;100.00
8334;BME280;4204;43.004;23.052;2023-06-22T10:41:32;94230.44;;;29.15;100.00
8334;BME280;4204;43.004;23.052;2023-06-22T10:44:01;94229.44;;;29.25;100.00
8334;BME280;4204;43.004;23.052;2023-06-22T10:46:28;94230.50;;;29.31;100.00
8334;BME280;4204;43.004;23.052;2023-06-22T10:48:56;94228.81;;;29.37;100.00
8334;BME280;4204;43.004;23.052;2023-06-22T10:51:26;94221.94;;;29.29;100.00
8334;BME280;4204;43.004;23.052;2023-06-22T10:53:56;94233.53;;;29.17;100.00
8334;BME280;4204;43.004;23.052;2023-06-22T10:56:23;94229.22;;;29.16;100.00
8334;BME280;4204;43.004;23.052;2023-06-22T10:58:51;94230.00;;;29.16;100.00
8334;BME280;4204;43.004;23.052;2023-06-22T11:01:20;94228.75;;;29.21;100.00
8334;BME280;4204;43.004;23.052;2023-06-22T11:03:48;94237.91;;;29.11;100.00
8334;BME280;4204;43.004;23.052;2023-06-22T11:06:15;94233.44;;;28.97;100.00
8334;BME280;4204;43.004;23.052;2023-06-22T11:08:44;94227.34;;;28.90;100.00
8334;BME280;4204;43.004;23.052;2023-06-22T11:11:13;94226.56;;;28.89;100.00
8334;BME280;4204;43.004;23.052;2023-06-22T11:13:41;94227.69;;;28.92;100.00
8334;BME280;4204;43.004;23.052;2023-06-22T11:16:09;94229.97;;;28.97;100.00
8334;BME280;4204;43.004;23.052;2023-06-22T11:18:37;94229.75;;;29.07;100.00
8334;BME280;4204;43.004;23.052;2023-06-22T11:21:04;94221.78;;;28.93;100.00
8334;BME280;4204;43.004;23.052;2023-06-22T11:23:32;94230.09;;;28.90;100.00
8334;BME280;4204;43.004;23.052;2023-06-22T11:26:00;94235.09;;;28.95;100.00
8334;BME280;4204;43.004;23.052;2023-06-22T11:28:29;94224.53;;;28.93;100.00
8334;BME280;4204;43.004;23.052;2023-06-22T11:30:57;94232.03;;;28.89;100.00
8334;BME280;4204;43.004;23.052;2023-06-22T11:33:25;94231.34;;;28.85;100.00
8334;BME280;4204;43.004;23.052;2023-06-22T11:35:52;94223.66;;;28.76;100.00
8334;BME280;4204;43.004;23.052;2023-06-22T11:38:22;94217.47;;;28.72;100.00
8334;BME280;4204;43.004;23.052;2023-06-22T11:40:50;94222.78;;;28.60;100.00
8334;BME280;4204;43.004;23.052;2023-06-22T11:43:17;94223.97;;;28.59;100.00
8334;BME280;4204;43.004;23.052;2023-06-22T11:45:47;94226.19;;;28.67;100.00
8334;BME280;4204;43.004;23.052;2023-06-22T11:48:14;94225.94;;;28.58;100.00
8334;BME280;4204;43.004;23.052;2023-06-22T11:50:42;94222.09;;;28.52;100.00
8334;BME280;4204;43.004;23.052;2023-06-22T11:53:10;94217.16;;;28.44;100.00
8334;BME280;4204;43.004;23.052;2023-06-22T11:55:37;94220.38;;;28.39;100.00
8334;BME280;4204;43.004;23.052;2023-06-22T11:58:05;94218.28;;;28.46;100.00
8334;BME280;4204;43.004;23.052;2023-06-22T12:00:34;94209.88;;;28.60;100.00
8334;BME280;4204;43.004;23.052;2023-06-22T12:03:04;94204.69;;;28.66;100.00
8334;BME280;4204;43.004;23.052;2023-06-22T12:05:32;94200.75;;;28.67;100.00
8334;BME280;4204;43.004;23.052;2023-06-22T12:08:00;94211.63;;;28.70;100.00
8334;BME280;4204;43.004;23.052;2023-06-22T12:10:28;94212.13;;;28.65;100.00
8334;BME280;4204;43.004;23.052;2023-06-22T12:12:56;94211.16;;;28.52;100.00
8334;BME280;4204;43.004;23.052;2023-06-22T12:15:26;94219.38;;;28.52;100.00
8334;BME280;4204;43.004;23.052;2023-06-22T12:17:54;94216.28;;;28.50;100.00
8334;BME280;4204;43.004;23.052;2023-06-22T12:20:23;94208.94;;;28.44;100.00
8334;BME280;4204;43.004;23.052;2023-06-22T12:22:51;94212.47;;;28.44;100.00
8334;BME280;4204;43.004;23.052;2023-06-22T12:25:21;94221.84;;;28.43;100.00
8334;BME280;4204;43.004;23.052;2023-06-22T12:27:49;94224.34;;;28.34;100.00
8334;BME280;4204;43.004;23.052;2023-06-22T12:30:17;94222.38;;;28.12;100.00
8334;BME280;4204;43.004;23.052;2023-06-22T12:32:44;94215.88;;;27.72;100.00
8334;BME280;4204;43.004;23.052;2023-06-22T12:35:12;94220.53;;;27.45;100.00
8334;BME280;4204;43.004;23.052;2023-06-22T12:37:43;94235.88;;;27.35;100.00
8334;BME280;4204;43.004;23.052;2023-06-22T12:40:11;94222.41;;;27.17;100.00
8334;BME280;4204;43.004;23.052;2023-06-22T12:42:39;94220.41;;;27.21;100.00
8334;BME280;4204;43.004;23.052;2023-06-22T12:45:08;94222.75;;;27.19;100.00
8334;BME280;4204;43.004;23.052;2023-06-22T12:47:36;94222.88;;;27.09;100.00
8334;BME280;4204;43.004;23.052;2023-06-22T12:50:05;94224.84;;;27.08;100.00
8334;BME280;4204;43.004;23.052;2023-06-22T12:52:33;94234.59;;;27.09;100.00
8334;BME280;4204;43.004;23.052;2023-06-22T12:55:02;94244.56;;;26.86;100.00
8334;BME280;4204;43.004;23.052;2023-06-22T12:57:30;94235.75;;;26.71;100.00
8334;BME280;4204;43.004;23.052;2023-06-22T12:59:58;94239.25;;;26.68;100.00
8334;BME280;4204;43.004;23.052;2023-06-22T13:02:27;94247.50;;;26.65;100.00
8334;BME280;4204;43.004;23.052;2023-06-22T13:04:55;94263.28;;;26.39;100.00
8334;BME280;4204;43.004;23.052;2023-06-22T13:07:23;94284.81;;;26.27;100.00